createdAt,value
2022-08-09T00:00:35.346Z,77.08
2022-08-09T00:04:10.049Z,76.23
2022-08-09T00:06:19.075Z,77.02
2022-08-09T00:08:48.565Z,76.33
2022-08-09T00:11:24.959Z,77.84
2022-08-09T00:13:55.790Z,77.12
2022-08-09T00:16:26.326Z,79.26
2022-08-09T00:19:09.534Z,78.93
2022-08-09T00:22:04.319Z,79.17
2022-08-09T00:24:32.598Z,77.38
2022-08-09T00:27:00.635Z,77.90
2022-08-09T00:29:39.085Z,77.33
2022-08-09T00:32:25.802Z,78.02
2022-08-09T00:34:55.334Z,78.25
2022-08-09T00:37:22.540Z,78.81
2022-08-09T00:40:12.498Z,77.57
2022-08-09T00:44:11.746Z,80.29
2022-08-09T00:45:26.332Z,77.62
2022-08-09T00:47:53.431Z,78.53
2022-08-09T00:50:24.030Z,79.81
2022-08-09T00:52:52.824Z,77.16
2022-08-09T00:56:02.999Z,78.70
2022-08-09T00:58:09.149Z,78.91
2022-08-09T01:00:40.656Z,78.20
2022-08-09T01:03:16.935Z,78.20
2022-08-09T01:05:54.554Z,78.70
2022-08-09T01:08:59.730Z,78.38
2022-08-09T01:14:42.984Z,78.16
2022-08-09T01:17:19.252Z,78.53
2022-08-09T01:20:02.106Z,80.60
2022-08-09T01:26:11.269Z,79.66
2022-08-09T01:28:45.920Z,79.23
2022-08-09T01:31:23.355Z,78.16
2022-08-09T01:34:10.718Z,78.87
2022-08-09T01:36:39.316Z,77.42
2022-08-09T01:39:07.229Z,78.50
2022-08-09T01:41:53.552Z,77.73
2022-08-09T01:44:29.144Z,78.35
2022-08-09T01:47:00.243Z,79.33
2022-08-09T01:49:38.822Z,78.16
2022-08-09T01:52:14.555Z,78.69
2022-08-09T01:54:53.866Z,78.53
2022-08-09T01:57:27.236Z,79.84
2022-08-09T02:00:09.127Z,79.55
2022-08-09T02:02:50.526Z,78.97
2022-08-09T02:05:20.972Z,79.50
2022-08-09T02:08:35.748Z,79.90
2022-08-09T02:11:16.778Z,79.94
2022-08-09T02:14:06.598Z,80.09
2022-08-09T02:17:15.378Z,80.27
2022-08-09T02:19:49.990Z,79.32
2022-08-09T02:22:31.468Z,80.53
2022-08-09T02:25:03.042Z,81.44
2022-08-09T02:27:58.106Z,82.76
2022-08-09T02:30:20.615Z,83.16
2022-08-09T02:32:49.128Z,83.31
2022-08-09T02:36:01.758Z,84.06
2022-08-09T02:38:22.178Z,85.85
2022-08-09T02:41:02.203Z,86.56
2022-08-09T02:43:54.345Z,84.50
2022-08-09T02:46:20.826Z,85.08
2022-08-09T02:48:51.097Z,86.13
2022-08-09T02:51:22.240Z,86.50
2022-08-09T02:54:00.664Z,86.05
2022-08-09T02:56:31.672Z,85.97
2022-08-09T02:59:04.990Z,86.70
2022-08-09T03:01:42.869Z,86.57
2022-08-09T03:04:26.205Z,84.96
2022-08-09T03:06:59.714Z,86.20
2022-08-09T03:09:42.854Z,85.38
2022-08-09T03:12:13.353Z,86.48
2022-08-09T03:14:42.865Z,85.40
2022-08-09T03:17:16.352Z,87.34
2022-08-09T03:19:58.556Z,87.25
2022-08-09T03:22:33.276Z,87.65
2022-08-09T03:25:26.989Z,87.49
2022-08-09T03:28:02.580Z,86.57
2022-08-09T03:30:34.233Z,87.43
2022-08-09T03:33:15.314Z,86.47
2022-08-09T03:36:13.666Z,85.13
2022-08-09T03:38:41.904Z,86.47
2022-08-09T03:41:15.175Z,87.21
2022-08-09T03:44:03.699Z,86.12
2022-08-09T03:46:31.949Z,86.59
2022-08-09T03:49:04.046Z,86.98
2022-08-09T03:51:56.910Z,86.47
2022-08-09T03:54:31.004Z,85.79
2022-08-09T03:57:18.777Z,85.87
2022-08-09T03:59:54.150Z,85.36
2022-08-09T04:02:28.197Z,86.23
2022-08-09T04:04:58.689Z,85.70
2022-08-09T04:10:29.386Z,85.94
2022-08-09T04:13:01.286Z,86.39
2022-08-09T04:15:52.437Z,85.56
2022-08-09T04:18:21.534Z,86.19
2022-08-09T04:20:50.120Z,85.61
2022-08-09T04:23:24.197Z,85.60
2022-08-09T04:25:53.086Z,86.49
2022-08-09T04:28:33.959Z,87.57
2022-08-09T04:31:07.808Z,85.68
2022-08-09T04:33:52.528Z,85.71
2022-08-09T04:36:26.425Z,85.99
2022-08-09T04:38:55.201Z,84.70
2022-08-09T04:41:24.426Z,84.17
2022-08-09T04:44:06.536Z,84.64
2022-08-09T04:46:38.282Z,84.52
2022-08-09T04:49:40.851Z,82.55
2022-08-09T04:52:18.352Z,82.84
2022-08-09T04:54:51.735Z,83.80
2022-08-09T04:57:23.729Z,82.62
2022-08-09T04:59:54.047Z,82.31
2022-08-09T05:02:22.166Z,84.02
2022-08-09T05:04:55.443Z,81.60
2022-08-09T05:07:24.486Z,82.03
2022-08-09T05:09:51.572Z,85.88
2022-08-09T05:12:19.025Z,83.29
2022-08-09T05:14:49.866Z,84.48
2022-08-09T05:18:55.160Z,85.10
2022-08-09T05:20:05.442Z,83.56
2022-08-09T05:22:35.985Z,83.44
2022-08-09T05:25:21.251Z,84.06
2022-08-09T05:27:50.787Z,85.16
2022-08-09T05:30:19.404Z,83.95
2022-08-09T05:32:53.154Z,85.89
2022-08-09T05:35:22.082Z,84.54
2022-08-09T05:37:51.057Z,83.99
2022-08-09T05:40:18.992Z,83.09
2022-08-09T05:42:46.965Z,84.17
2022-08-09T05:45:14.891Z,85.43
2022-08-09T05:47:52.163Z,86.78
2022-08-09T05:50:44.163Z,84.80
2022-08-09T05:53:31.588Z,86.13
2022-08-09T05:55:59.067Z,84.51
2022-08-09T05:58:26.758Z,85.16
2022-08-09T06:00:54.028Z,86.99
2022-08-09T06:03:21.149Z,84.53
2022-08-09T06:05:57.391Z,85.15
2022-08-09T06:08:31.935Z,85.58
2022-08-09T06:10:59.390Z,85.29
2022-08-09T06:13:28.641Z,83.63
2022-08-09T06:16:05.350Z,86.56
2022-08-09T06:18:33.659Z,85.47
2022-08-09T06:21:01.608Z,84.83
2022-08-09T06:23:58.050Z,85.29
2022-08-09T06:26:22.336Z,85.06
2022-08-09T06:32:18.393Z,83.92
2022-08-09T06:34:33.510Z,85.42
2022-08-09T06:37:00.709Z,83.82
2022-08-09T06:39:48.544Z,83.56
2022-08-09T06:42:24.487Z,82.94
2022-08-09T06:44:54.191Z,80.82
2022-08-09T06:47:22.389Z,80.88
2022-08-09T06:50:13.664Z,82.44
2022-08-09T06:52:47.086Z,79.81
2022-08-09T06:55:23.043Z,81.61
2022-08-09T06:58:03.014Z,80.78
2022-08-09T07:00:56.551Z,80.83
2022-08-09T07:03:20.299Z,83.99
2022-08-09T07:06:03.641Z,81.43
2022-08-09T07:08:33.775Z,82.86
2022-08-09T07:11:03.576Z,81.91
2022-08-09T07:14:05.733Z,81.04
2022-08-09T07:16:41.909Z,79.66
2022-08-09T07:19:06.132Z,79.04
2022-08-09T07:21:35.014Z,81.22
2022-08-09T07:24:05.085Z,79.51
2022-08-09T07:26:32.588Z,80.24
2022-08-09T07:29:11.914Z,81.98
2022-08-09T07:31:45.381Z,78.10
2022-08-09T07:34:20.524Z,78.01
2022-08-09T07:37:15.860Z,80.38
2022-08-09T07:39:43.887Z,77.11
2022-08-09T07:42:13.818Z,77.65
2022-08-09T07:44:52.540Z,77.27
2022-08-09T07:47:21.587Z,76.49
2022-08-09T07:50:05.227Z,77.62
2022-08-09T07:52:36.751Z,76.62
2022-08-09T07:55:08.828Z,74.74
2022-08-09T07:57:37.111Z,74.73
2022-08-09T08:00:20.499Z,75.30
2022-08-09T08:03:04.585Z,72.16
2022-08-09T08:05:53.565Z,73.40
2022-08-09T08:09:01.315Z,74.60
2022-08-09T08:12:09.150Z,72.85
2022-08-09T08:13:57.279Z,72.94
2022-08-09T08:16:29.457Z,74.54
2022-08-09T08:18:59.262Z,72.88
2022-08-09T08:21:26.623Z,71.58
2022-08-09T08:23:56.036Z,70.75
2022-08-09T08:26:26.315Z,71.18
2022-08-09T08:29:08.931Z,71.27
2022-08-09T08:31:56.494Z,71.59
2022-08-09T08:34:25.365Z,71.49
2022-08-09T08:36:52.816Z,72.00
2022-08-09T08:39:22.189Z,75.09
2022-08-09T08:41:52.390Z,71.77
2022-08-09T08:44:27.052Z,71.97
2022-08-09T08:47:00.049Z,74.15
2022-08-09T08:49:38.645Z,73.12
2022-08-09T08:52:57.475Z,72.14
2022-08-09T08:55:15.294Z,72.09
2022-08-09T08:57:57.490Z,72.43
2022-08-09T09:00:34.248Z,72.20
2022-08-09T09:03:12.120Z,72.10
2022-08-09T09:05:58.415Z,71.67
2022-08-09T09:08:32.035Z,70.69
2022-08-09T09:14:00.525Z,71.83
2022-08-09T09:16:32.330Z,70.58
2022-08-09T09:19:39.755Z,70.54
2022-08-09T09:22:15.905Z,70.23
2022-08-09T09:24:59.087Z,69.83
2022-08-09T09:28:05.478Z,69.91
2022-08-09T09:30:40.995Z,68.68
2022-08-09T09:33:15.396Z,68.28
2022-08-09T09:36:02.845Z,68.50
2022-08-09T09:38:48.499Z,67.72
2022-08-09T09:41:28.013Z,68.59
2022-08-09T09:44:11.598Z,70.46
2022-08-09T09:46:51.034Z,67.97
2022-08-09T09:49:31.874Z,67.82
2022-08-09T09:52:16.291Z,69.12
2022-08-09T09:55:16.256Z,66.57
2022-08-09T09:58:02.902Z,66.31
2022-08-09T10:00:33.544Z,66.03
2022-08-09T10:03:09.373Z,66.38
2022-08-09T10:06:04.240Z,64.63
2022-08-09T10:08:43.116Z,66.30
2022-08-09T10:11:59.834Z,63.88
2022-08-09T10:14:30.712Z,67.64
2022-08-09T10:17:39.150Z,65.05
2022-08-09T10:19:59.835Z,66.52
2022-08-09T10:22:36.093Z,66.16
2022-08-09T10:25:11.007Z,67.15
2022-08-09T10:27:55.847Z,65.01
2022-08-09T10:34:05.260Z,65.50
2022-08-09T10:36:09.424Z,66.99
2022-08-09T10:38:57.132Z,65.88
2022-08-09T10:41:27.843Z,67.75
2022-08-09T10:44:00.105Z,69.02
2022-08-09T10:46:55.653Z,68.54
2022-08-09T10:49:51.390Z,67.52
2022-08-09T10:52:43.036Z,68.60
2022-08-09T10:55:35.666Z,66.65
2022-08-09T10:58:33.860Z,68.80
2022-08-09T11:03:06.546Z,70.68
2022-08-09T11:04:29.675Z,70.38
2022-08-09T11:07:00.364Z,68.02
2022-08-09T11:09:48.137Z,69.27
2022-08-09T11:12:29.597Z,67.67
2022-08-09T11:18:12.820Z,70.73
2022-08-09T11:20:49.777Z,69.70
2022-08-09T11:23:24.000Z,69.78
2022-08-09T11:25:57.222Z,68.31
2022-08-09T11:28:56.542Z,71.56
2022-08-09T11:31:50.227Z,71.23
2022-08-09T11:34:41.708Z,71.32
2022-08-09T11:37:24.359Z,68.94
2022-08-09T11:40:06.445Z,67.78
2022-08-09T11:42:41.227Z,68.37
2022-08-09T11:45:20.056Z,67.37
2022-08-09T11:47:49.194Z,67.56
2022-08-09T11:50:54.922Z,67.98
2022-08-09T11:53:57.738Z,67.72
2022-08-09T11:56:02.917Z,68.11
2022-08-09T11:58:33.013Z,68.88
2022-08-09T12:01:08.756Z,67.67
2022-08-09T12:03:56.685Z,65.97
2022-08-09T12:06:31.973Z,66.82
2022-08-09T12:12:04.007Z,67.45
2022-08-09T12:14:40.543Z,68.62
2022-08-09T12:17:34.676Z,66.54
2022-08-09T12:20:21.331Z,68.30
2022-08-09T12:22:55.963Z,65.19
2022-08-09T12:25:35.930Z,67.67
2022-08-09T12:29:12.695Z,69.35
2022-08-09T12:31:01.705Z,69.66
2022-08-09T12:36:32.217Z,68.11
2022-08-09T12:39:01.578Z,69.72
2022-08-09T12:41:39.280Z,69.16
2022-08-09T12:44:10.095Z,70.92
2022-08-09T12:46:48.958Z,68.73
2022-08-09T12:49:18.272Z,68.80
2022-08-09T12:52:02.629Z,68.14
2022-08-09T12:56:11.727Z,67.03
2022-08-09T12:57:46.315Z,66.97
2022-08-09T13:00:25.825Z,66.09
2022-08-09T13:02:57.349Z,65.81
2022-08-09T13:05:27.542Z,68.47
2022-08-09T13:08:16.277Z,69.20
2022-08-09T13:10:52.758Z,67.18
2022-08-09T13:13:38.073Z,67.87
2022-08-09T13:16:17.720Z,64.93
2022-08-09T13:18:53.763Z,67.56
2022-08-09T13:22:36.326Z,65.62
2022-08-09T13:24:52.501Z,65.98
2022-08-09T13:27:06.008Z,67.67
2022-08-09T13:30:03.020Z,67.31
2022-08-09T13:32:28.892Z,64.27
2022-08-09T13:34:56.416Z,65.81
2022-08-09T13:37:24.817Z,67.50
2022-08-09T13:41:55.144Z,67.05
2022-08-09T13:43:00.489Z,66.86
2022-08-09T13:46:42.418Z,67.41
2022-08-09T13:48:19.524Z,65.73
2022-08-09T13:50:46.738Z,63.74
2022-08-09T13:53:16.597Z,66.09
2022-08-09T13:55:44.840Z,65.10
2022-08-09T13:58:15.127Z,64.71
2022-08-09T14:00:48.295Z,63.54
2022-08-09T14:04:01.398Z,62.37
2022-08-09T14:06:19.218Z,64.42
2022-08-09T14:08:53.583Z,63.00
2022-08-09T14:11:20.914Z,61.96
2022-08-09T14:14:23.330Z,64.97
2022-08-09T14:16:36.063Z,62.15
2022-08-09T14:19:04.246Z,64.39
2022-08-09T14:21:32.004Z,62.37
2022-08-09T14:26:52.082Z,62.96
2022-08-09T14:30:04.408Z,62.81
2022-08-09T14:32:11.188Z,62.32
2022-08-09T14:34:41.115Z,62.66
2022-08-09T14:37:09.663Z,63.68
2022-08-09T14:39:45.133Z,63.00
2022-08-09T14:42:30.899Z,65.10
2022-08-09T14:46:39.590Z,66.64
2022-08-09T14:47:57.017Z,66.45
2022-08-09T14:50:31.241Z,65.00
2022-08-09T14:53:11.284Z,64.23
2022-08-09T14:55:50.044Z,63.40
2022-08-09T14:58:18.336Z,61.97
2022-08-09T15:00:48.364Z,64.52
2022-08-09T15:03:20.204Z,64.90
2022-08-09T15:05:52.404Z,65.20
2022-08-09T15:08:24.253Z,63.57
2022-08-09T15:11:01.304Z,65.06
2022-08-09T15:13:29.940Z,65.21
2022-08-09T15:16:16.656Z,63.83
2022-08-09T15:18:43.857Z,63.71
2022-08-09T15:21:55.327Z,63.58
2022-08-09T15:24:13.960Z,65.09
2022-08-09T15:26:45.908Z,65.14
2022-08-09T15:30:48.738Z,64.08
2022-08-09T15:32:02.608Z,64.24
2022-08-09T15:34:34.248Z,64.35
2022-08-09T15:37:23.462Z,64.53
2022-08-09T15:39:54.909Z,65.13
2022-08-09T15:42:23.161Z,66.79
2022-08-09T15:44:51.361Z,66.23
2022-08-09T15:47:23.676Z,66.12
2022-08-09T15:50:08.637Z,65.07
2022-08-09T15:52:38.245Z,66.02
2022-08-09T15:55:09.042Z,65.41
2022-08-09T15:57:44.268Z,66.09
2022-08-09T16:00:25.942Z,65.10
2022-08-09T16:02:56.689Z,65.02
2022-08-09T16:05:47.541Z,62.70
2022-08-09T16:08:29.774Z,64.95
2022-08-09T16:11:02.870Z,65.80
2022-08-09T16:14:03.838Z,65.54
2022-08-09T16:16:19.070Z,63.68
2022-08-09T16:18:47.608Z,64.39
2022-08-09T16:21:17.764Z,65.05
2022-08-09T16:23:58.747Z,63.57
2022-08-09T16:26:35.683Z,63.66
2022-08-09T16:29:11.447Z,63.67
2022-08-09T16:32:20.235Z,66.60
2022-08-09T16:34:53.371Z,65.52
2022-08-09T16:37:50.609Z,66.22
2022-08-09T16:40:10.185Z,66.99
2022-08-09T16:42:38.364Z,66.67
2022-08-09T16:45:07.036Z,65.00
2022-08-09T16:48:40.588Z,66.40
2022-08-09T16:50:29.484Z,67.55
2022-08-09T16:53:00.935Z,67.59
2022-08-09T16:55:31.405Z,67.64
2022-08-09T16:58:17.436Z,66.82
2022-08-09T17:00:46.562Z,68.22
2022-08-09T17:03:21.704Z,66.93
2022-08-09T17:06:07.818Z,67.28
2022-08-09T17:09:01.396Z,67.48
2022-08-09T17:11:40.703Z,68.18
2022-08-09T17:14:26.312Z,67.36
2022-08-09T17:17:00.189Z,68.10
2022-08-09T17:19:47.424Z,69.61
2022-08-09T17:22:34.020Z,70.27
2022-08-09T17:25:10.061Z,68.96
2022-08-09T17:27:48.772Z,69.81
2022-08-09T17:30:17.178Z,68.99
2022-08-09T17:32:47.088Z,71.05
2022-08-09T17:35:15.266Z,71.40
2022-08-09T17:38:14.380Z,70.54
2022-08-09T17:40:33.841Z,69.82
2022-08-09T17:43:32.973Z,69.67
2022-08-09T17:46:03.517Z,67.26
2022-08-09T17:48:32.803Z,69.61
2022-08-09T17:51:09.726Z,69.64
2022-08-09T17:53:51.799Z,68.98
2022-08-09T17:56:22.014Z,70.63
2022-08-09T17:59:01.073Z,68.39
2022-08-09T18:01:58.055Z,70.08
2022-08-09T18:04:19.639Z,71.84
2022-08-09T18:06:54.127Z,72.34
2022-08-09T18:09:25.105Z,70.17
2022-08-09T18:12:05.674Z,70.85
2022-08-09T18:14:53.467Z,70.56
2022-08-09T18:17:27.188Z,72.29
2022-08-09T18:20:56.682Z,71.97
2022-08-09T18:22:56.533Z,72.67
2022-08-09T18:25:52.972Z,73.88
2022-08-09T18:28:21.589Z,73.50
2022-08-09T18:30:58.953Z,75.03
2022-08-09T18:33:26.237Z,75.16
2022-08-09T18:35:59.083Z,76.01
2022-08-09T18:38:28.431Z,76.11
2022-08-09T18:40:56.323Z,76.65
2022-08-09T18:43:25.002Z,76.89
2022-08-09T18:46:49.152Z,76.84
2022-08-09T18:48:39.313Z,77.23
2022-08-09T18:51:09.896Z,76.79
2022-08-09T18:53:56.307Z,77.92
2022-08-09T18:59:17.051Z,78.02
2022-08-09T19:01:46.649Z,78.62
2022-08-09T19:04:14.915Z,79.06
2022-08-09T19:06:50.469Z,78.76
2022-08-09T19:09:34.049Z,78.95
2022-08-09T19:12:07.573Z,78.45
2022-08-09T19:14:35.283Z,78.29
2022-08-09T19:17:03.811Z,78.90
2022-08-09T19:19:41.585Z,79.27
2022-08-09T19:22:09.385Z,78.98
2022-08-09T19:25:12.084Z,79.51
2022-08-09T19:27:28.478Z,79.88
2022-08-09T19:30:22.892Z,79.91
2022-08-09T19:32:44.693Z,79.80
2022-08-09T19:35:11.881Z,79.41
2022-08-09T19:37:56.319Z,79.60
2022-08-09T19:40:34.077Z,79.37
2022-08-09T19:43:09.963Z,79.45
2022-08-09T19:49:01.575Z,79.14
2022-08-09T19:51:17.607Z,79.82
2022-08-09T19:53:47.689Z,79.28
2022-08-09T19:56:15.676Z,79.29
2022-08-09T19:58:42.917Z,78.87
2022-08-09T20:01:47.756Z,78.98
2022-08-09T20:04:33.483Z,78.44
2022-08-09T20:07:06.424Z,77.33
2022-08-09T20:09:44.926Z,77.51
2022-08-09T20:12:31.683Z,79.46
2022-08-09T20:15:04.733Z,77.58
2022-08-09T20:17:54.702Z,77.85
2022-08-09T20:20:24.640Z,77.07
2022-08-09T20:22:56.353Z,77.49
2022-08-09T20:25:24.204Z,78.56
2022-08-09T20:27:53.073Z,78.76
2022-08-09T20:30:23.775Z,79.38
2022-08-09T20:32:52.303Z,79.76
2022-08-09T20:35:24.387Z,79.82
2022-08-09T20:38:23.811Z,79.08
2022-08-09T20:40:38.684Z,80.10
2022-08-09T20:43:18.249Z,79.24
2022-08-09T20:45:59.344Z,79.80
2022-08-09T20:48:31.993Z,79.64
2022-08-09T20:51:00.928Z,81.01
2022-08-09T20:53:36.329Z,79.72
2022-08-09T20:56:20.385Z,79.53
2022-08-09T20:58:54.757Z,79.94
2022-08-09T21:01:34.794Z,80.26
2022-08-09T21:05:51.580Z,80.92
2022-08-09T21:07:13.092Z,80.41
2022-08-09T21:09:55.276Z,79.63
2022-08-09T21:15:12.674Z,77.55
2022-08-09T21:18:11.026Z,78.10
2022-08-09T21:20:30.012Z,78.13
2022-08-09T21:23:01.250Z,78.10
2022-08-09T21:25:57.951Z,77.70
2022-08-09T21:28:34.675Z,75.84
2022-08-09T21:31:17.162Z,75.73
2022-08-09T21:33:50.974Z,75.29
2022-08-09T21:36:23.027Z,75.29
2022-08-09T21:38:57.366Z,75.17
2022-08-09T21:42:05.774Z,75.16
2022-08-09T21:44:33.181Z,75.51
2022-08-09T21:47:07.903Z,76.82
2022-08-09T21:49:39.429Z,76.69
2022-08-09T21:52:17.161Z,77.74
2022-08-09T21:54:56.889Z,77.65
2022-08-09T21:57:39.170Z,77.87
2022-08-09T22:00:25.269Z,78.34
2022-08-09T22:02:58.090Z,78.72
2022-08-09T22:05:36.858Z,77.57
2022-08-09T22:08:13.723Z,77.98
2022-08-09T22:11:04.961Z,78.37
2022-08-09T22:13:35.442Z,77.92
2022-08-09T22:16:07.745Z,78.51
2022-08-09T22:18:37.282Z,78.58
2022-08-09T22:21:09.940Z,78.40
2022-08-09T22:23:59.998Z,78.43
2022-08-09T22:26:34.988Z,78.52
2022-08-09T22:29:10.259Z,80.18
2022-08-09T22:31:50.538Z,79.99
2022-08-09T22:34:27.952Z,79.76
2022-08-09T22:39:57.723Z,80.64
2022-08-09T22:42:26.197Z,80.78
2022-08-09T22:45:18.472Z,80.30
2022-08-09T22:48:13.806Z,80.32
2022-08-09T22:50:31.191Z,80.12
2022-08-09T22:52:59.197Z,80.88
2022-08-09T22:55:39.635Z,80.98
2022-08-09T22:58:31.063Z,81.39
2022-08-09T23:01:05.619Z,81.78
2022-08-09T23:04:03.694Z,81.40
2022-08-09T23:06:32.689Z,81.84
2022-08-09T23:09:05.619Z,82.02
2022-08-09T23:11:32.815Z,82.10
2022-08-09T23:14:00.050Z,81.99
2022-08-09T23:16:27.199Z,82.12
2022-08-09T23:18:54.354Z,81.82
2022-08-09T23:21:25.306Z,81.68
2022-08-09T23:24:01.477Z,81.67
2022-08-09T23:26:37.388Z,82.34
2022-08-09T23:29:11.557Z,82.43
2022-08-09T23:31:39.361Z,83.25
2022-08-09T23:34:07.005Z,83.26
2022-08-09T23:36:35.399Z,83.10
2022-08-09T23:39:04.932Z,82.06
2022-08-09T23:41:32.261Z,82.06
2022-08-09T23:44:01.117Z,81.76
2022-08-09T23:46:29.705Z,80.80
2022-08-09T23:48:57.980Z,80.89
2022-08-09T23:51:26.020Z,81.16
2022-08-09T23:53:55.354Z,81.23
2022-08-09T23:56:53.378Z,80.06
2022-08-09T23:59:21.847Z,80.73
